createdAt,value
2022-09-11T00:02:06.281Z,16.7
2022-09-11T00:07:57.278Z,16.6
2022-09-11T00:13:52.015Z,16.7
2022-09-11T00:19:48.624Z,16.8
2022-09-11T00:25:40.466Z,16.8
2022-09-11T00:31:36.143Z,16.8
2022-09-11T00:37:27.017Z,16.8
2022-09-11T00:43:19.883Z,16.9
2022-09-11T00:49:10.824Z,16.9
2022-09-11T00:55:02.353Z,16.9
2022-09-11T01:00:53.604Z,16.9
2022-09-11T01:06:44.865Z,16.8
2022-09-11T01:12:35.757Z,16.8
2022-09-11T01:18:26.357Z,16.8
2022-09-11T01:24:17.551Z,16.9
2022-09-11T01:30:11.600Z,17
2022-09-11T01:36:03.382Z,17
2022-09-11T01:41:54.692Z,17
2022-09-11T01:47:46.223Z,16.9
2022-09-11T01:53:36.893Z,17
2022-09-11T01:59:31.537Z,16.9
2022-09-11T02:05:22.446Z,17
2022-09-11T02:11:14.712Z,17
2022-09-11T02:17:07.111Z,17
2022-09-11T02:22:57.821Z,16.9
2022-09-11T02:28:48.590Z,16.8
2022-09-11T02:34:39.431Z,16.9
2022-09-11T02:40:30.880Z,17
2022-09-11T02:46:21.773Z,16.9
2022-09-11T02:52:12.710Z,16.8
2022-09-11T02:58:02.670Z,16.8
2022-09-11T03:03:52.131Z,16.8
2022-09-11T03:09:45.638Z,16.7
2022-09-11T03:15:35.797Z,16.7
2022-09-11T03:21:26.590Z,16.7
2022-09-11T03:27:16.865Z,16.8
2022-09-11T03:33:08.152Z,16.7
2022-09-11T03:38:58.252Z,16.8
2022-09-11T03:44:48.687Z,16.8
2022-09-11T03:50:40.816Z,16.7
2022-09-11T03:56:31.308Z,16.7
2022-09-11T04:02:21.999Z,16.5
2022-09-11T04:08:13.124Z,16.5
2022-09-11T04:14:05.658Z,16.6
2022-09-11T04:19:56.082Z,16.6
2022-09-11T04:25:46.323Z,16.5
2022-09-11T04:31:37.955Z,16.6
2022-09-11T04:37:32.473Z,16.6
2022-09-11T05:32:09.230Z,16.4
2022-09-11T09:34:17.706Z,17.5
2022-09-11T09:52:54.597Z,18.2
2022-09-11T09:58:52.789Z,18.3
2022-09-11T10:04:50.988Z,18.4
2022-09-11T10:11:01.160Z,18.5
2022-09-11T10:29:42.867Z,18.5
2022-09-11T10:35:42.671Z,18.8
2022-09-11T10:41:45.189Z,18.9
2022-09-11T10:47:53.866Z,19
2022-09-11T10:59:43.145Z,18.9
2022-09-11T11:05:39.028Z,19
2022-09-11T11:11:32.284Z,18.9
2022-09-11T11:23:19.549Z,19.3
2022-09-11T11:29:11.417Z,19.5
2022-09-11T11:47:26.722Z,19.4
2022-09-11T13:35:37.882Z,21.2
2022-09-11T13:41:27.843Z,21.4
2022-09-11T13:47:18.728Z,21.3
2022-09-11T13:53:09.487Z,21.6
2022-09-11T14:00:09.515Z,21.2
2022-09-11T14:06:00.528Z,21.4
2022-09-11T14:11:51.554Z,21.3
2022-09-11T14:17:43.006Z,21.5
2022-09-11T14:23:34.559Z,21.5
2022-09-11T14:29:32.205Z,21.6
2022-09-11T14:35:23.094Z,21.7
2022-09-11T14:41:14.493Z,21.7
2022-09-11T14:47:06.096Z,21.4
2022-09-11T14:52:57.566Z,21.9
2022-09-11T14:58:47.865Z,21.6
2022-09-11T15:04:38.595Z,21.5
2022-09-11T15:10:28.431Z,21.7
2022-09-11T15:16:18.641Z,21.8
2022-09-11T15:22:07.988Z,21.8
2022-09-11T15:27:57.250Z,21.8
2022-09-11T15:33:47.801Z,21.8
2022-09-11T15:39:37.261Z,21.7
2022-09-11T15:45:27.608Z,21.8
2022-09-11T15:51:17.392Z,21.6
2022-09-11T15:57:07.056Z,21.8
2022-09-11T16:02:57.943Z,21.8
2022-09-11T16:08:48.678Z,21.6
2022-09-11T16:14:39.795Z,21.9
2022-09-11T16:20:30.565Z,21.6
2022-09-11T16:26:23.092Z,21.6
2022-09-11T16:32:13.664Z,21.5
2022-09-11T16:38:03.585Z,21.5
2022-09-11T16:43:54.318Z,21.5
2022-09-11T16:50:05.718Z,21.4
2022-09-11T16:55:55.418Z,21.5
2022-09-11T17:01:44.440Z,21.3
2022-09-11T17:07:35.142Z,21.1
2022-09-11T17:13:24.173Z,21
2022-09-11T17:19:14.757Z,21
2022-09-11T17:25:04.819Z,20.8
2022-09-11T17:30:55.088Z,20.8
2022-09-11T17:36:45.100Z,20.6
2022-09-11T17:42:35.589Z,20.4
2022-09-11T17:48:26.198Z,20.3
2022-09-11T17:54:18.136Z,20
2022-09-11T18:00:07.880Z,19.8
2022-09-11T18:05:58.706Z,19.9
2022-09-11T18:11:49.039Z,19.6
2022-09-11T18:17:37.972Z,19.4
2022-09-11T18:23:29.670Z,19.3
2022-09-11T18:29:20.251Z,19.1
2022-09-11T18:35:10.174Z,19
2022-09-11T18:41:01.220Z,18.7
2022-09-11T18:46:51.735Z,18.8
2022-09-11T18:52:43.399Z,18.5
2022-09-11T18:58:33.412Z,18.2
2022-09-11T19:04:23.795Z,18.1
2022-09-11T19:10:13.889Z,18
2022-09-11T19:16:03.732Z,17.9
2022-09-11T19:21:54.020Z,17.8
2022-09-11T19:27:46.327Z,17.8
2022-09-11T19:33:36.328Z,17.6
2022-09-11T19:39:27.165Z,17.4
2022-09-11T19:45:17.723Z,17.7
2022-09-11T19:51:09.389Z,17.6
2022-09-11T19:57:00.367Z,17.5
2022-09-11T20:02:50.215Z,17.2
2022-09-11T20:08:40.319Z,17.3
2022-09-11T20:14:30.977Z,17.3
2022-09-11T20:20:27.166Z,16.9
2022-09-11T20:26:17.642Z,16.8
2022-09-11T20:38:32.953Z,16.6
2022-09-11T20:57:41.371Z,16.7
2022-09-11T21:10:15.642Z,16.4
2022-09-11T21:22:28.047Z,16.5
2022-09-11T21:28:32.000Z,16.1
2022-09-11T22:06:14.790Z,16
2022-09-11T22:12:09.733Z,15.6
2022-09-11T22:24:13.037Z,15.6
2022-09-11T22:30:16.766Z,15.4
2022-09-11T22:36:24.244Z,15.6
2022-09-11T22:42:28.236Z,15.4
2022-09-11T22:48:27.886Z,15.4
2022-09-11T22:54:22.945Z,15.4
2022-09-11T23:00:26.935Z,15.5
2022-09-11T23:06:26.578Z,15.5
2022-09-11T23:12:21.571Z,15.3
2022-09-11T23:18:21.947Z,15.4
2022-09-11T23:24:23.756Z,15.2
2022-09-11T23:30:17.820Z,15.3
2022-09-11T23:42:49.799Z,14.9
2022-09-11T23:55:21.664Z,14.8
